createdAt,value
2022-09-25T00:00:47.346Z,9.43
2022-09-25T00:03:15.731Z,10.55
2022-09-25T00:05:44.077Z,11.27
2022-09-25T00:08:10.575Z,10.20
2022-09-25T00:10:49.428Z,9.93
2022-09-25T00:13:17.906Z,11.18
2022-09-25T00:15:53.287Z,10.80
2022-09-25T00:18:39.524Z,10.02
2022-09-25T00:21:07.008Z,10.70
2022-09-25T00:23:34.458Z,10.18
2022-09-25T00:26:03.126Z,10.32
2022-09-25T00:28:29.621Z,10.10
2022-09-25T00:30:56.951Z,11.38
2022-09-25T00:33:23.998Z,10.50
2022-09-25T00:35:50.742Z,10.52
2022-09-25T00:38:17.281Z,11.40
2022-09-25T00:40:43.911Z,10.18
2022-09-25T00:43:37.243Z,11.77
2022-09-25T00:46:09.161Z,11.90
2022-09-25T00:48:37.413Z,10.52
2022-09-25T00:51:05.222Z,11.13
2022-09-25T00:53:37.351Z,11.88
2022-09-25T00:56:05.191Z,11.68
2022-09-25T00:58:34.538Z,11.80
2022-09-25T01:01:01.210Z,12.02
2022-09-25T01:03:28.758Z,12.40
2022-09-25T01:06:00.326Z,11.57
2022-09-25T01:08:30.519Z,11.85
2022-09-25T01:10:57.507Z,12.80
2022-09-25T01:13:24.234Z,12.60
2022-09-25T01:15:59.832Z,11.85
2022-09-25T01:18:47.689Z,11.60
2022-09-25T01:21:23.486Z,10.80
2022-09-25T01:24:25.833Z,11.65
2022-09-25T01:27:30.112Z,11.60
2022-09-25T01:30:12.277Z,11.63
2022-09-25T01:32:55.901Z,11.43
2022-09-25T01:35:42.891Z,12.10
2022-09-25T01:38:40.271Z,10.68
2022-09-25T01:41:23.623Z,10.23
2022-09-25T01:43:57.504Z,11.57
2022-09-25T01:46:29.018Z,11.30
2022-09-25T01:49:33.402Z,11.75
2022-09-25T01:52:02.525Z,11.48
2022-09-25T01:54:41.704Z,12.05
2022-09-25T01:57:12.495Z,11.07
2022-09-25T01:59:56.685Z,11.05
2022-09-25T02:02:31.487Z,11.23
2022-09-25T02:05:31.420Z,10.75
2022-09-25T02:08:08.684Z,12.13
2022-09-25T02:10:45.051Z,11.13
2022-09-25T02:13:15.540Z,12.40
2022-09-25T02:16:05.464Z,11.50
2022-09-25T02:18:50.828Z,11.75
2022-09-25T02:21:40.826Z,11.68
2022-09-25T02:24:19.762Z,10.60
2022-09-25T02:26:47.448Z,10.88
2022-09-25T02:29:15.438Z,10.90
2022-09-25T02:31:55.040Z,11.27
2022-09-25T02:34:23.108Z,11.32
2022-09-25T02:36:50.052Z,11.40
2022-09-25T02:39:20.519Z,11.13
2022-09-25T02:42:14.786Z,11.07
2022-09-25T02:44:50.735Z,10.52
2022-09-25T02:47:42.425Z,11.20
2022-09-25T02:50:17.315Z,10.60
2022-09-25T02:52:59.018Z,11.93
2022-09-25T02:55:48.265Z,11.77
2022-09-25T02:58:27.396Z,12.25
2022-09-25T03:00:56.699Z,12.00
2022-09-25T03:03:25.569Z,11.57
2022-09-25T03:05:56.514Z,12.32
2022-09-25T03:08:40.810Z,11.80
2022-09-25T03:11:13.438Z,12.60
2022-09-25T03:13:41.027Z,12.68
2022-09-25T03:16:28.148Z,11.80
2022-09-25T03:18:54.731Z,12.38
2022-09-25T03:21:21.180Z,11.50
2022-09-25T03:23:47.742Z,11.73
2022-09-25T03:26:14.276Z,12.75
2022-09-25T03:28:40.801Z,11.82
2022-09-25T03:31:10.528Z,12.57
2022-09-25T03:33:39.456Z,12.60
2022-09-25T03:36:18.393Z,12.27
2022-09-25T03:38:46.356Z,11.55
2022-09-25T03:41:14.319Z,13.00
2022-09-25T03:43:43.398Z,12.27
2022-09-25T03:46:12.881Z,12.52
2022-09-25T03:48:40.454Z,12.93
2022-09-25T03:51:08.072Z,11.98
2022-09-25T03:53:34.715Z,12.10
2022-09-25T03:56:08.513Z,11.27
2022-09-25T03:58:35.459Z,10.30
2022-09-25T04:01:02.807Z,10.18
2022-09-25T04:03:31.452Z,9.27
2022-09-25T04:06:00.659Z,9.85
2022-09-25T04:08:28.314Z,8.00
2022-09-25T04:11:01.965Z,8.82
2022-09-25T04:13:36.136Z,8.43
2022-09-25T04:16:05.403Z,8.88
2022-09-25T04:18:32.128Z,9.00
2022-09-25T04:21:03.424Z,9.30
2022-09-25T04:23:30.470Z,10.35
2022-09-25T04:25:57.238Z,9.88
2022-09-25T04:28:24.843Z,9.15
2022-09-25T04:30:51.741Z,9.93
2022-09-25T04:33:37.247Z,9.95
2022-09-25T04:36:04.978Z,9.57
2022-09-25T04:38:32.475Z,9.98
2022-09-25T04:41:02.805Z,9.77
2022-09-25T04:43:30.259Z,11.18
2022-09-25T04:46:01.838Z,11.18
2022-09-25T04:48:29.068Z,11.93
2022-09-25T04:50:55.960Z,13.07
2022-09-25T04:53:22.989Z,13.65
2022-09-25T04:55:49.540Z,14.25
2022-09-25T04:58:16.030Z,12.85
2022-09-25T05:00:42.704Z,14.20
2022-09-25T05:03:09.365Z,17.00
2022-09-25T05:05:36.006Z,17.15
2022-09-25T05:08:03.586Z,17.42
2022-09-25T05:10:32.475Z,19.23
2022-09-25T05:13:01.123Z,19.92
2022-09-25T05:15:30.168Z,19.10
2022-09-25T05:18:12.461Z,19.65
2022-09-25T05:20:39.089Z,20.33
2022-09-25T05:23:05.564Z,20.60
2022-09-25T05:25:32.480Z,21.38
2022-09-25T05:28:01.185Z,20.23
2022-09-25T05:30:33.560Z,21.60
2022-09-25T05:33:00.554Z,21.15
2022-09-25T05:35:29.652Z,21.17
2022-09-25T05:37:56.359Z,22.85
2022-09-25T05:40:24.292Z,22.77
2022-09-25T05:42:52.023Z,22.52
2022-09-25T05:45:20.067Z,22.42
2022-09-25T05:47:47.256Z,22.90
2022-09-25T05:50:16.532Z,22.33
2022-09-25T05:52:44.431Z,22.70
2022-09-25T05:55:11.064Z,25.15
2022-09-25T05:57:38.129Z,25.02
2022-09-25T06:00:09.178Z,24.90
2022-09-25T06:02:38.550Z,25.30
2022-09-25T06:05:05.214Z,24.52
2022-09-25T06:07:31.739Z,23.95
2022-09-25T06:09:58.226Z,26.65
2022-09-25T06:12:24.877Z,23.52
2022-09-25T06:14:52.439Z,23.50
2022-09-25T06:17:19.550Z,20.65
2022-09-25T06:19:46.574Z,21.27
2022-09-25T06:22:13.412Z,23.75
2022-09-25T06:24:40.039Z,20.90
2022-09-25T06:27:07.360Z,19.52
2022-09-25T06:29:33.801Z,20.13
2022-09-25T06:32:00.318Z,19.30
2022-09-25T06:34:28.261Z,17.98
2022-09-25T06:36:54.774Z,17.55
2022-09-25T06:39:21.262Z,15.88
2022-09-25T06:41:47.770Z,13.82
2022-09-25T06:44:22.466Z,15.23
2022-09-25T06:46:54.780Z,16.38
2022-09-25T06:49:21.940Z,13.60
2022-09-25T06:51:50.986Z,12.68
2022-09-25T06:54:17.867Z,12.18
2022-09-25T06:56:47.981Z,11.43
2022-09-25T06:59:14.753Z,11.55
2022-09-25T07:01:41.252Z,11.27
2022-09-25T07:04:07.900Z,11.25
2022-09-25T07:06:37.337Z,10.90
2022-09-25T07:09:03.907Z,11.68
2022-09-25T07:11:31.408Z,10.80
2022-09-25T07:13:58.652Z,10.18
2022-09-25T07:16:28.051Z,10.52
2022-09-25T07:18:56.204Z,9.75
2022-09-25T07:21:24.571Z,10.20
2022-09-25T07:23:52.245Z,11.57
2022-09-25T07:26:24.585Z,10.25
2022-09-25T07:28:57.185Z,10.65
2022-09-25T07:31:26.779Z,11.57
2022-09-25T07:33:53.823Z,10.85
2022-09-25T07:36:21.175Z,11.13
2022-09-25T07:38:52.620Z,11.35
2022-09-25T07:41:22.616Z,10.88
2022-09-25T07:46:44.680Z,10.88
2022-09-25T07:49:11.850Z,12.00
2022-09-25T07:51:38.414Z,11.85
2022-09-25T07:54:05.094Z,11.32
2022-09-25T07:56:34.443Z,11.80
2022-09-25T07:59:01.191Z,12.38
2022-09-25T08:01:27.820Z,11.50
2022-09-25T08:03:54.637Z,11.65
2022-09-25T08:06:21.186Z,10.55
2022-09-25T08:08:47.749Z,11.00
2022-09-25T08:11:17.095Z,11.73
2022-09-25T08:13:44.520Z,9.95
2022-09-25T08:16:14.128Z,10.32
2022-09-25T08:18:42.288Z,9.63
2022-09-25T08:21:09.839Z,9.60
2022-09-25T08:23:36.561Z,8.93
2022-09-25T08:26:03.217Z,9.25
2022-09-25T08:28:29.908Z,9.18
2022-09-25T08:30:59.762Z,8.10
2022-09-25T08:33:26.456Z,8.05
2022-09-25T08:36:04.197Z,8.15
2022-09-25T08:38:34.269Z,8.07
2022-09-25T08:41:10.405Z,7.25
2022-09-25T08:43:44.704Z,7.40
2022-09-25T08:46:53.546Z,8.23
2022-09-25T08:49:26.292Z,7.55
2022-09-25T08:51:57.660Z,7.93
2022-09-25T08:54:26.404Z,7.55
2022-09-25T08:56:56.990Z,8.27
2022-09-25T08:59:30.905Z,8.32
2022-09-25T09:02:03.871Z,8.10
2022-09-25T09:04:36.933Z,8.57
2022-09-25T09:07:27.642Z,8.75
2022-09-25T09:10:08.806Z,8.63
2022-09-25T09:12:48.368Z,7.70
2022-09-25T09:15:54.489Z,8.20
2022-09-25T09:18:26.959Z,7.13
2022-09-25T09:21:02.056Z,6.32
2022-09-25T09:23:40.622Z,6.05
2022-09-25T09:26:27.931Z,6.78
2022-09-25T09:29:00.273Z,5.97
2022-09-25T09:31:53.941Z,6.72
2022-09-25T09:34:53.699Z,6.80
2022-09-25T09:37:39.046Z,6.43
2022-09-25T09:40:24.140Z,6.53
2022-09-25T09:43:05.603Z,7.85
2022-09-25T09:45:53.938Z,7.15
2022-09-25T09:48:36.772Z,7.30
2022-09-25T09:51:10.790Z,7.38
2022-09-25T09:53:50.707Z,7.20
2022-09-25T09:56:25.766Z,6.95
2022-09-25T09:59:02.240Z,6.82
2022-09-25T10:01:42.568Z,6.20
2022-09-25T10:04:35.628Z,5.95
2022-09-25T10:07:11.842Z,5.70
2022-09-25T10:09:38.414Z,5.43
2022-09-25T10:12:21.521Z,5.70
2022-09-25T10:14:48.476Z,6.10
2022-09-25T10:17:16.231Z,5.30
2022-09-25T10:19:53.844Z,5.32
2022-09-25T10:22:25.973Z,4.18
2022-09-25T10:25:02.196Z,4.28
2022-09-25T10:27:46.214Z,4.05
2022-09-25T10:30:21.830Z,4.20
2022-09-25T10:33:03.025Z,4.00
2022-09-25T10:35:39.993Z,4.03
2022-09-25T10:38:19.024Z,4.63
2022-09-25T10:40:47.635Z,4.72
2022-09-25T10:43:20.708Z,4.28
2022-09-25T10:45:54.100Z,5.20
2022-09-25T10:48:45.437Z,4.68
2022-09-25T10:51:18.134Z,4.70
2022-09-25T10:53:53.722Z,4.38
2022-09-25T10:56:27.676Z,3.95
2022-09-25T10:58:58.225Z,4.20
2022-09-25T11:01:37.904Z,4.70
2022-09-25T11:04:16.508Z,4.30
2022-09-25T11:06:52.381Z,4.22
2022-09-25T11:09:25.040Z,4.10
2022-09-25T11:12:03.916Z,3.50
2022-09-25T11:14:35.723Z,3.30
2022-09-25T11:17:06.146Z,3.35
2022-09-25T11:19:35.968Z,3.17
2022-09-25T11:22:26.220Z,3.10
2022-09-25T11:25:18.456Z,3.15
2022-09-25T11:28:09.976Z,3.40
2022-09-25T11:30:54.773Z,4.05
2022-09-25T11:33:37.974Z,4.40
2022-09-25T11:36:12.266Z,5.53
2022-09-25T11:39:09.190Z,4.97
2022-09-25T11:41:42.209Z,4.85
2022-09-25T11:44:32.143Z,5.32
2022-09-25T11:47:11.365Z,5.35
2022-09-25T11:49:41.935Z,5.82
2022-09-25T11:52:40.076Z,6.20
2022-09-25T11:55:57.341Z,5.57
2022-09-25T11:59:04.113Z,4.80
2022-09-25T12:01:41.566Z,4.45
2022-09-25T12:04:41.767Z,5.82
2022-09-25T12:07:35.846Z,5.97
2022-09-25T12:10:42.976Z,6.30
2022-09-25T12:13:24.814Z,4.93
2022-09-25T12:16:09.315Z,4.15
2022-09-25T12:18:48.101Z,4.35
2022-09-25T12:21:21.715Z,4.53
2022-09-25T12:23:51.262Z,3.90
2022-09-25T12:26:29.873Z,3.53
2022-09-25T12:29:14.072Z,3.55
2022-09-25T12:32:04.464Z,3.95
2022-09-25T12:34:50.755Z,3.85
2022-09-25T12:37:38.579Z,3.45
2022-09-25T12:40:21.383Z,3.53
2022-09-25T12:43:09.015Z,3.47
2022-09-25T12:45:38.241Z,3.60
2022-09-25T12:48:15.570Z,3.30
2022-09-25T12:51:02.760Z,3.47
2022-09-25T12:53:38.809Z,3.22
2022-09-25T12:56:13.576Z,3.65
2022-09-25T12:59:05.339Z,3.10
2022-09-25T13:01:45.383Z,3.60
2022-09-25T13:04:35.181Z,2.72
2022-09-25T13:07:11.896Z,3.25
2022-09-25T13:09:45.015Z,3.42
2022-09-25T13:12:23.421Z,3.30
2022-09-25T13:14:56.095Z,3.08
2022-09-25T13:17:23.692Z,3.45
2022-09-25T13:19:50.237Z,3.35
2022-09-25T13:22:25.318Z,3.13
2022-09-25T13:24:58.127Z,3.67
2022-09-25T13:27:25.838Z,3.15
2022-09-25T13:29:57.077Z,3.92
2022-09-25T13:32:28.957Z,3.72
2022-09-25T13:35:00.073Z,4.07
2022-09-25T13:37:33.228Z,4.47
2022-09-25T13:40:20.787Z,3.70
2022-09-25T13:42:47.751Z,3.72
2022-09-25T13:45:34.697Z,3.58
2022-09-25T13:48:10.217Z,3.50
2022-09-25T13:50:47.004Z,3.83
2022-09-25T13:53:22.632Z,3.70
2022-09-25T13:55:55.109Z,3.58
2022-09-25T13:58:31.786Z,3.30
2022-09-25T14:01:00.097Z,3.10
2022-09-25T14:03:49.574Z,3.63
2022-09-25T14:06:26.036Z,3.63
2022-09-25T14:08:55.909Z,3.83
2022-09-25T14:11:29.094Z,3.38
2022-09-25T14:13:56.722Z,3.33
2022-09-25T14:16:30.957Z,2.95
2022-09-25T14:18:59.058Z,2.75
2022-09-25T14:21:27.547Z,2.88
2022-09-25T14:23:56.918Z,3.17
2022-09-25T14:26:28.301Z,2.83
2022-09-25T14:28:57.460Z,3.28
2022-09-25T14:31:30.259Z,2.80
2022-09-25T14:34:25.886Z,2.20
2022-09-25T14:37:01.756Z,2.70
2022-09-25T14:39:32.644Z,2.53
2022-09-25T14:42:34.717Z,2.00
2022-09-25T14:45:24.112Z,1.95
2022-09-25T14:47:53.221Z,2.10
2022-09-25T14:50:24.298Z,2.20
2022-09-25T14:53:02.568Z,2.10
2022-09-25T14:55:39.710Z,1.98
2022-09-25T14:58:13.555Z,1.27
2022-09-25T15:00:52.809Z,1.92
2022-09-25T15:03:25.089Z,1.75
2022-09-25T15:05:51.883Z,1.85
2022-09-25T15:08:35.670Z,1.73
2022-09-25T15:11:15.007Z,1.30
2022-09-25T15:13:42.262Z,1.75
2022-09-25T15:16:35.522Z,1.35
2022-09-25T15:19:08.350Z,1.50
2022-09-25T15:21:37.118Z,1.55
2022-09-25T15:24:10.759Z,1.33
2022-09-25T15:26:45.364Z,1.35
2022-09-25T15:29:18.188Z,1.50
2022-09-25T15:31:52.320Z,1.85
2022-09-25T15:34:27.616Z,1.60
2022-09-25T15:36:54.521Z,1.50
2022-09-25T15:39:25.293Z,1.73
2022-09-25T15:41:52.390Z,1.65
2022-09-25T15:44:24.413Z,1.75
2022-09-25T15:46:52.269Z,1.48
2022-09-25T15:49:25.419Z,1.35
2022-09-25T15:52:27.610Z,1.48
2022-09-25T15:54:59.620Z,1.35
2022-09-25T15:57:29.714Z,1.30
2022-09-25T16:00:16.553Z,1.52
2022-09-25T16:03:45.295Z,1.70
2022-09-25T16:06:18.383Z,1.30
2022-09-25T16:08:44.962Z,1.40
2022-09-25T16:11:18.076Z,1.60
2022-09-25T16:13:49.421Z,1.70
2022-09-25T16:16:19.180Z,1.60
2022-09-25T16:18:46.269Z,1.27
2022-09-25T16:21:21.003Z,1.20
2022-09-25T16:23:59.846Z,1.40
2022-09-25T16:26:39.764Z,1.15
2022-09-25T16:29:12.485Z,1.50
2022-09-25T16:31:41.458Z,1.30
2022-09-25T16:34:17.706Z,1.45
2022-09-25T16:36:47.085Z,1.00
2022-09-25T16:39:27.130Z,1.48
2022-09-25T16:41:54.420Z,1.50
2022-09-25T16:44:35.923Z,1.60
2022-09-25T16:47:14.596Z,1.50
2022-09-25T16:49:43.683Z,1.50
2022-09-25T16:52:20.490Z,1.90
2022-09-25T16:54:52.968Z,3.03
2022-09-25T16:57:29.213Z,1.95
2022-09-25T16:59:55.922Z,1.88
2022-09-25T17:02:36.491Z,1.67
2022-09-25T17:05:16.111Z,1.33
2022-09-25T17:07:43.959Z,1.50
2022-09-25T17:10:16.117Z,1.38
2022-09-25T17:12:51.240Z,3.58
2022-09-25T17:15:27.484Z,2.58
2022-09-25T17:17:55.300Z,2.05
2022-09-25T17:20:26.530Z,2.00
2022-09-25T17:22:54.374Z,1.88
2022-09-25T17:25:43.041Z,4.03
2022-09-25T17:28:10.940Z,4.97
2022-09-25T17:30:38.877Z,3.08
2022-09-25T17:33:06.999Z,5.55
2022-09-25T17:35:41.655Z,1.77
2022-09-25T17:38:10.495Z,1.80
2022-09-25T17:40:37.270Z,2.20
2022-09-25T17:43:03.887Z,2.30
2022-09-25T17:45:43.182Z,2.75
2022-09-25T17:48:09.726Z,2.65
2022-09-25T17:50:36.241Z,2.17
2022-09-25T17:53:15.472Z,1.70
2022-09-25T17:55:42.120Z,1.90
2022-09-25T17:58:08.760Z,1.92
2022-09-25T18:00:35.257Z,2.33
2022-09-25T18:03:01.894Z,2.10
2022-09-25T18:05:29.627Z,2.95
2022-09-25T18:07:56.276Z,2.50
2022-09-25T18:10:23.717Z,11.18
2022-09-25T18:12:50.256Z,7.63
2022-09-25T18:15:16.883Z,7.05
2022-09-25T18:17:43.500Z,5.82
2022-09-25T18:20:32.040Z,21.35
2022-09-25T18:22:58.759Z,13.38
2022-09-25T18:25:25.638Z,9.43
2022-09-25T18:27:52.420Z,8.88
2022-09-25T18:30:23.400Z,8.88
2022-09-25T18:32:51.203Z,9.10
2022-09-25T18:35:19.795Z,10.55
2022-09-25T18:37:48.753Z,7.00
2022-09-25T18:40:18.784Z,6.13
2022-09-25T18:42:46.001Z,6.10
2022-09-25T18:45:13.707Z,5.95
2022-09-25T18:47:41.453Z,8.20
2022-09-25T18:50:10.118Z,10.85
2022-09-25T18:52:38.253Z,10.40
2022-09-25T18:55:06.298Z,9.07
2022-09-25T18:57:36.281Z,8.88
2022-09-25T19:00:06.425Z,9.60
2022-09-25T19:02:35.013Z,3.95
2022-09-25T19:05:01.634Z,4.55
2022-09-25T19:07:29.387Z,6.40
2022-09-25T19:09:58.462Z,7.07
2022-09-25T19:12:25.568Z,6.93
2022-09-25T19:14:52.267Z,6.10
2022-09-25T19:17:19.933Z,6.20
2022-09-25T19:19:46.430Z,5.38
2022-09-25T19:22:20.791Z,5.45
2022-09-25T19:24:48.781Z,5.70
2022-09-25T19:27:16.849Z,5.40
2022-09-25T19:29:47.177Z,5.95
2022-09-25T19:32:16.662Z,5.50
2022-09-25T19:34:43.410Z,6.03
2022-09-25T19:37:10.714Z,6.50
2022-09-25T19:39:55.994Z,5.88
2022-09-25T19:42:23.920Z,5.80
2022-09-25T19:44:50.788Z,5.75
2022-09-25T19:47:17.422Z,4.45
2022-09-25T19:49:44.026Z,5.68
2022-09-25T19:52:10.923Z,4.57
2022-09-25T19:54:38.264Z,5.65
2022-09-25T19:57:07.948Z,5.13
2022-09-25T19:59:35.242Z,4.95
2022-09-25T20:02:02.318Z,4.82
2022-09-25T20:04:28.974Z,5.03
2022-09-25T20:06:58.510Z,5.18
2022-09-25T20:09:26.205Z,4.93
2022-09-25T20:11:53.001Z,4.85
2022-09-25T20:14:25.238Z,5.60
2022-09-25T20:16:53.900Z,4.72
2022-09-25T20:19:20.994Z,5.28
2022-09-25T20:21:48.308Z,5.80
2022-09-25T20:24:14.829Z,5.38
2022-09-25T20:26:41.675Z,5.07
2022-09-25T20:29:12.127Z,4.95
2022-09-25T20:31:40.846Z,5.50
2022-09-25T20:34:08.654Z,5.78
2022-09-25T20:36:37.747Z,5.15
2022-09-25T20:39:05.056Z,5.90
2022-09-25T20:41:33.148Z,5.28
2022-09-25T20:43:59.954Z,5.72
2022-09-25T20:46:27.436Z,5.32
2022-09-25T20:48:57.416Z,5.20
2022-09-25T20:51:29.449Z,5.30
2022-09-25T20:54:01.172Z,5.63
2022-09-25T20:56:29.348Z,5.22
2022-09-25T20:58:57.107Z,5.55
2022-09-25T21:01:27.149Z,5.45
2022-09-25T21:03:54.672Z,4.90
2022-09-25T21:06:24.013Z,5.45
2022-09-25T21:08:56.234Z,5.45
2022-09-25T21:11:24.004Z,5.10
2022-09-25T21:13:52.754Z,4.63
2022-09-25T21:16:21.180Z,4.60
2022-09-25T21:18:53.287Z,4.72
2022-09-25T21:21:19.946Z,4.40
2022-09-25T21:23:52.176Z,4.70
2022-09-25T21:26:19.005Z,4.78
2022-09-25T21:28:48.121Z,4.25
2022-09-25T21:31:21.914Z,4.65
2022-09-25T21:33:54.397Z,4.38
2022-09-25T21:36:21.760Z,3.63
2022-09-25T21:38:49.389Z,3.90
2022-09-25T21:41:20.876Z,3.80
2022-09-25T21:43:47.769Z,3.85
2022-09-25T21:46:17.993Z,4.00
2022-09-25T21:48:56.539Z,3.85
2022-09-25T21:51:26.959Z,4.03
2022-09-25T21:53:56.581Z,4.00
2022-09-25T21:56:25.636Z,3.67
2022-09-25T21:58:54.019Z,4.40
2022-09-25T22:01:26.920Z,3.72
2022-09-25T22:03:56.753Z,3.70
2022-09-25T22:06:26.989Z,3.63
2022-09-25T22:08:55.980Z,3.72
2022-09-25T22:11:23.383Z,3.78
2022-09-25T22:13:51.097Z,3.80
2022-09-25T22:16:38.373Z,4.15
2022-09-25T22:19:09.841Z,4.00
2022-09-25T22:21:37.493Z,3.72
2022-09-25T22:24:04.605Z,3.65
2022-09-25T22:26:33.630Z,3.53
2022-09-25T22:29:00.169Z,3.75
2022-09-25T22:31:29.194Z,3.38
2022-09-25T22:33:58.764Z,3.78
2022-09-25T22:36:27.248Z,3.97
2022-09-25T22:38:54.695Z,3.92
2022-09-25T22:41:21.185Z,3.63
2022-09-25T22:43:50.866Z,3.50
2022-09-25T22:46:18.212Z,3.80
2022-09-25T22:48:44.761Z,3.80
2022-09-25T22:51:14.058Z,3.55
2022-09-25T22:53:40.734Z,3.65
2022-09-25T22:56:16.643Z,3.78
2022-09-25T22:58:47.258Z,3.60
2022-09-25T23:01:37.059Z,3.13
2022-09-25T23:04:10.820Z,3.45
2022-09-25T23:06:37.605Z,3.10
2022-09-25T23:09:08.134Z,3.45
2022-09-25T23:11:34.772Z,3.50
2022-09-25T23:14:11.142Z,3.50
2022-09-25T23:16:38.534Z,3.33
2022-09-25T23:19:05.216Z,3.75
2022-09-25T23:21:32.042Z,3.47
2022-09-25T23:24:04.969Z,3.58
2022-09-25T23:26:32.161Z,3.22
2022-09-25T23:28:59.919Z,3.40
2022-09-25T23:31:26.670Z,3.17
2022-09-25T23:33:53.242Z,3.47
2022-09-25T23:36:21.945Z,3.53
2022-09-25T23:38:50.361Z,2.92
2022-09-25T23:41:25.046Z,3.83
2022-09-25T23:43:53.159Z,3.58
2022-09-25T23:46:21.808Z,3.60
2022-09-25T23:48:48.670Z,3.00
2022-09-25T23:51:16.656Z,3.28
2022-09-25T23:53:44.289Z,3.63
2022-09-25T23:56:16.318Z,3.50
2022-09-25T23:58:43.412Z,3.63
